Time;durP1;ratioP1;P1;durP2;ratioP2;P2;SDS_P1;SDS_P2;PMS_P1;PMS_P2;Temp;Humidity;BMP_temperature;BMP_pressure;BME280_temperature;BME280_humidity;BME280_pressure;Samples;Min_cycle;Max_cycle;Signal;HPM_P1;HPM_P2
2022/04/13 00:01:33;;;;;;;0.93;0.77;;;14.50;99.90;;;;;;5053705;28;20278;-64
2022/04/13 00:04:00;;;;;;;0.90;0.90;;;14.40;99.90;;;;;;5051249;28;20614;-66
2022/04/13 00:06:27;;;;;;;1.00;1.00;;;14.40;99.90;;;;;;5053074;28;20208;-66
2022/04/13 00:08:55;;;;;;;1.40;0.80;;;14.30;99.90;;;;;;5056196;28;20302;-64
2022/04/13 00:11:23;;;;;;;0.77;0.77;;;14.30;99.90;;;;;;5055823;28;20318;-65
2022/04/13 00:13:49;;;;;;;0.90;0.90;;;14.20;99.90;;;;;;5060305;28;20288;-65
2022/04/13 00:16:18;;;;;;;0.90;0.90;;;14.20;99.90;;;;;;5058592;28;20200;-66
2022/04/13 00:18:44;;;;;;;1.17;1.05;;;14.10;99.90;;;;;;5060285;28;20220;-66
2022/04/13 00:21:11;;;;;;;1.20;1.10;;;14.10;99.90;;;;;;5059935;28;20287;-65
2022/04/13 00:23:38;;;;;;;0.85;0.85;;;14.20;99.90;;;;;;5058393;28;20662;-67
2022/04/13 00:26:05;;;;;;;1.10;0.90;;;14.10;99.90;;;;;;5059537;28;20204;-65
2022/04/13 00:28:32;;;;;;;0.90;0.90;;;14.00;99.90;;;;;;5059117;28;20234;-65
2022/04/13 00:30:59;;;;;;;0.88;0.88;;;14.00;99.90;;;;;;5057662;28;20231;-64
2022/04/13 00:33:27;;;;;;;1.30;1.20;;;14.10;99.90;;;;;;5054199;28;20220;-64
2022/04/13 00:35:55;;;;;;;1.33;1.10;;;14.00;99.90;;;;;;5049889;28;20200;-66
2022/04/13 00:38:22;;;;;;;0.80;0.80;;;14.00;99.90;;;;;;5052467;28;20259;-64
2022/04/13 00:40:50;;;;;;;1.10;1.00;;;14.00;99.90;;;;;;5050205;28;20218;-66
2022/04/13 00:43:17;;;;;;;0.77;0.77;;;14.00;99.90;;;;;;5063737;22;20247;-69
2022/04/13 00:45:45;;;;;;;1.03;1.03;;;14.00;99.90;;;;;;5051668;28;20283;-70
2022/04/13 00:48:20;;;;;;;1.23;0.90;;;14.00;99.90;;;;;;5046575;28;20211;-68
2022/04/13 00:50:48;;;;;;;0.80;0.80;;;14.00;99.90;;;;;;5049097;28;20250;-70
2022/04/13 00:53:16;;;;;;;0.90;0.90;;;14.00;99.90;;;;;;5050872;28;20230;-69
2022/04/13 00:55:45;;;;;;;0.77;0.77;;;14.00;99.90;;;;;;5052449;28;20281;-70
2022/04/13 00:58:14;;;;;;;0.97;0.93;;;14.00;99.90;;;;;;5052674;28;20250;-70
2022/04/13 01:00:48;;;;;;;1.83;1.35;;;14.10;99.90;;;;;;5049797;28;20608;-69
2022/04/13 01:03:17;;;;;;;1.10;1.10;;;14.00;99.90;;;;;;5050400;28;20216;-69
2022/04/13 01:05:45;;;;;;;0.80;0.80;;;14.10;99.90;;;;;;5051856;28;20614;-70
2022/04/13 01:08:15;;;;;;;0.80;0.80;;;14.10;99.90;;;;;;5052453;28;20295;-68
2022/04/13 01:10:42;;;;;;;0.75;0.75;;;14.10;99.90;;;;;;5052293;28;20200;-68
2022/04/13 01:13:09;;;;;;;0.88;0.85;;;14.10;99.90;;;;;;5049577;28;20227;-68
2022/04/13 01:15:36;;;;;;;0.90;0.90;;;14.10;99.90;;;;;;5051193;28;20228;-69
2022/04/13 01:18:04;;;;;;;1.00;0.90;;;14.10;99.90;;;;;;5052441;28;20211;-68
2022/04/13 01:20:31;;;;;;;0.82;0.80;;;14.20;99.90;;;;;;5043556;28;20211;-69
2022/04/13 01:22:59;;;;;;;0.80;0.80;;;14.20;99.90;;;;;;5050149;28;20315;-69
2022/04/13 01:25:26;;;;;;;1.00;0.90;;;14.20;99.90;;;;;;5047648;28;20245;-71
2022/04/13 01:27:53;;;;;;;0.95;0.95;;;14.10;99.90;;;;;;5050681;28;20242;-69
2022/04/13 01:30:23;;;;;;;1.10;1.10;;;14.10;99.90;;;;;;5050780;28;20599;-65
2022/04/13 01:32:51;;;;;;;1.27;1.10;;;14.10;99.90;;;;;;5051082;28;20345;-69
2022/04/13 01:35:18;;;;;;;1.35;1.10;;;14.00;99.90;;;;;;5051092;28;20224;-68
2022/04/13 01:37:45;;;;;;;1.00;0.90;;;13.90;99.90;;;;;;5050552;28;20202;-69
2022/04/13 01:40:13;;;;;;;1.97;1.10;;;13.90;99.90;;;;;;5057926;28;20658;-68
2022/04/13 01:42:40;;;;;;;1.38;1.23;;;13.80;99.90;;;;;;5071184;28;20239;-72
2022/04/13 01:45:07;;;;;;;0.80;0.80;;;13.80;99.90;;;;;;5068806;28;20200;-68
2022/04/13 01:47:34;;;;;;;0.90;0.90;;;13.80;99.90;;;;;;5058888;28;20248;-70
2022/04/13 01:50:01;;;;;;;0.70;0.70;;;13.90;99.90;;;;;;5052971;28;20282;-70
2022/04/13 01:52:28;;;;;;;1.17;1.08;;;13.80;99.90;;;;;;5050839;28;20287;-69
2022/04/13 01:54:55;;;;;;;0.73;0.73;;;13.80;99.90;;;;;;5051034;28;20299;-70
2022/04/13 01:57:23;;;;;;;1.05;1.02;;;13.80;99.90;;;;;;5050568;28;20283;-69
2022/04/13 01:59:50;;;;;;;1.00;0.90;;;13.80;99.90;;;;;;5056675;28;20629;-68
2022/04/13 02:02:17;;;;;;;1.02;1.00;;;13.80;99.90;;;;;;5057529;28;20232;-69
2022/04/13 02:04:44;;;;;;;0.90;0.90;;;13.80;99.90;;;;;;5057855;28;20223;-68
2022/04/13 02:07:11;;;;;;;0.88;0.88;;;13.80;99.90;;;;;;5052075;28;20329;-70
2022/04/13 02:09:38;;;;;;;0.90;0.90;;;13.80;99.90;;;;;;5052454;28;20266;-71
2022/04/13 02:12:05;;;;;;;0.93;0.93;;;13.70;99.90;;;;;;5051687;28;20773;-69
2022/04/13 02:14:34;;;;;;;1.00;1.00;;;13.70;99.90;;;;;;5051999;28;20315;-68
2022/04/13 02:17:00;;;;;;;0.93;0.90;;;13.60;99.90;;;;;;5054256;28;20286;-69
2022/04/13 02:19:27;;;;;;;1.10;1.10;;;13.60;99.90;;;;;;5051966;28;20291;-70
2022/04/13 02:21:54;;;;;;;0.95;0.90;;;13.60;99.90;;;;;;5051548;28;20617;-69
2022/04/13 02:24:21;;;;;;;0.90;0.90;;;13.50;99.90;;;;;;5051133;28;20253;-69
2022/04/13 02:26:48;;;;;;;1.20;1.10;;;13.50;99.90;;;;;;5050934;28;20232;-69
2022/04/13 02:29:15;;;;;;;0.97;0.97;;;13.50;99.90;;;;;;5048407;28;20714;-69
2022/04/13 02:31:43;;;;;;;0.90;0.90;;;13.50;99.90;;;;;;5051194;28;20210;-69
2022/04/13 02:34:13;;;;;;;0.80;0.80;;;13.50;99.90;;;;;;5050768;28;20769;-66
2022/04/13 02:36:39;;;;;;;0.90;0.90;;;13.50;99.90;;;;;;5050312;28;20878;-69
2022/04/13 02:39:06;;;;;;;1.15;1.05;;;13.50;99.90;;;;;;5050683;28;20700;-70
2022/04/13 02:41:33;;;;;;;0.90;0.90;;;13.40;99.90;;;;;;5053039;28;20235;-68
2022/04/13 02:44:00;;;;;;;0.88;0.88;;;13.50;99.90;;;;;;5051656;28;20223;-69
2022/04/13 02:46:27;;;;;;;1.20;1.10;;;13.60;99.90;;;;;;5051570;28;20203;-68
2022/04/13 02:48:55;;;;;;;1.23;1.23;;;13.40;99.90;;;;;;5050382;28;20246;-70
2022/04/13 02:51:22;;;;;;;1.15;1.08;;;13.30;99.90;;;;;;5051373;28;20283;-69
2022/04/13 02:53:49;;;;;;;0.90;0.90;;;13.30;99.90;;;;;;5050140;28;20311;-68
2022/04/13 02:56:17;;;;;;;1.38;1.00;;;13.40;99.90;;;;;;5049574;28;20211;-69
2022/04/13 02:58:44;;;;;;;1.48;1.10;;;13.40;99.90;;;;;;5050078;28;20223;-69
2022/04/13 03:01:11;;;;;;;1.35;1.25;;;13.40;99.90;;;;;;5050106;28;20204;-69
2022/04/13 03:03:38;;;;;;;1.05;0.95;;;13.40;99.90;;;;;;5049643;28;20241;-68
2022/04/13 03:06:06;;;;;;;0.97;0.87;;;13.40;99.90;;;;;;5049753;28;20620;-70
2022/04/13 03:08:33;;;;;;;1.10;1.07;;;13.40;99.90;;;;;;5049356;28;20231;-69
2022/04/13 03:11:00;;;;;;;1.42;1.33;;;13.50;99.90;;;;;;5049684;28;20219;-67
2022/04/13 03:13:27;;;;;;;1.48;1.20;;;13.50;99.90;;;;;;5049718;28;20223;-70
2022/04/13 03:15:54;;;;;;;1.42;1.05;;;13.60;99.90;;;;;;5049329;28;20299;-69
2022/04/13 03:18:21;;;;;;;0.80;0.80;;;13.50;99.90;;;;;;5049708;28;20288;-67
2022/04/13 03:20:48;;;;;;;0.90;0.90;;;13.50;99.90;;;;;;5049728;28;20211;-66
2022/04/13 03:23:16;;;;;;;1.00;1.00;;;13.50;99.90;;;;;;5050183;28;20224;-70
2022/04/13 03:25:43;;;;;;;1.00;1.00;;;13.50;99.90;;;;;;5049059;28;20303;-70
2022/04/13 03:28:10;;;;;;;1.08;0.90;;;13.50;99.90;;;;;;5050783;28;20286;-70
2022/04/13 03:30:37;;;;;;;0.98;0.98;;;13.50;99.90;;;;;;5050101;28;20196;-70
2022/04/13 03:33:04;;;;;;;1.25;1.10;;;13.40;99.90;;;;;;5047385;28;20307;-71
2022/04/13 03:35:31;;;;;;;1.15;1.10;;;13.40;99.90;;;;;;5050244;28;20232;-67
2022/04/13 03:37:58;;;;;;;0.70;0.70;;;13.40;99.90;;;;;;5051368;28;20208;-70
2022/04/13 03:40:26;;;;;;;0.85;0.85;;;13.40;99.90;;;;;;5051163;28;20218;-69
2022/04/13 03:42:53;;;;;;;0.90;0.90;;;13.50;99.90;;;;;;5050981;28;20235;-68
2022/04/13 03:45:20;;;;;;;1.60;1.00;;;13.40;99.90;;;;;;5051308;28;20210;-70
2022/04/13 03:47:47;;;;;;;0.90;0.90;;;13.40;99.90;;;;;;5051000;28;20216;-70
2022/04/13 03:50:14;;;;;;;0.90;0.90;;;13.40;99.90;;;;;;5050909;28;20214;-69
2022/04/13 03:52:41;;;;;;;0.93;0.93;;;13.30;99.90;;;;;;5062540;28;20263;-70
2022/04/13 03:55:10;;;;;;;0.90;0.90;;;13.30;99.90;;;;;;5071101;28;20251;-70
2022/04/13 03:57:38;;;;;;;0.97;0.93;;;13.30;99.90;;;;;;5069570;28;20243;-70
2022/04/13 04:00:07;;;;;;;0.90;0.90;;;13.30;99.90;;;;;;5054931;28;20258;-69
2022/04/13 04:02:37;;;;;;;0.90;0.90;;;13.30;99.90;;;;;;5054939;28;20267;-70
2022/04/13 04:05:04;;;;;;;1.10;1.10;;;13.30;99.90;;;;;;5054925;28;20274;-68
2022/04/13 04:07:31;;;;;;;1.88;1.00;;;13.30;99.90;;;;;;5053340;28;20210;-67
2022/04/13 04:09:58;;;;;;;1.00;1.00;;;13.20;99.90;;;;;;5054607;28;20288;-70
2022/04/13 04:12:25;;;;;;;0.90;0.90;;;13.20;99.90;;;;;;5054643;28;20312;-69
2022/04/13 04:14:53;;;;;;;1.00;1.00;;;13.10;99.90;;;;;;5054206;28;20216;-68
2022/04/13 04:17:20;;;;;;;1.23;1.15;;;13.10;99.90;;;;;;5053416;28;20234;-68
2022/04/13 04:19:47;;;;;;;1.00;1.00;;;13.10;99.90;;;;;;5054473;28;20636;-69
2022/04/13 04:22:15;;;;;;;1.17;1.08;;;13.10;99.90;;;;;;5055064;28;20621;-68
2022/04/13 04:24:42;;;;;;;0.90;0.90;;;13.10;99.90;;;;;;5055764;28;20326;-70
2022/04/13 04:27:09;;;;;;;1.00;1.00;;;13.00;99.90;;;;;;5058143;28;20236;-69
2022/04/13 04:29:36;;;;;;;1.65;1.55;;;13.00;99.90;;;;;;5059143;28;20732;-70
2022/04/13 04:32:05;;;;;;;1.50;1.40;;;12.90;99.90;;;;;;5071514;28;20216;-69
2022/04/13 04:34:33;;;;;;;1.17;1.17;;;12.90;99.90;;;;;;5065904;28;20279;-68
2022/04/13 04:37:00;;;;;;;1.20;1.10;;;12.90;99.90;;;;;;5059898;28;20201;-68
2022/04/13 04:39:27;;;;;;;1.10;1.10;;;12.80;99.90;;;;;;5054230;28;20582;-69
2022/04/13 04:41:54;;;;;;;1.17;1.10;;;12.70;99.90;;;;;;5054101;28;20208;-70
2022/04/13 04:44:21;;;;;;;1.17;1.10;;;12.70;99.90;;;;;;5053249;28;20274;-70
2022/04/13 04:46:48;;;;;;;1.02;0.90;;;12.60;99.90;;;;;;5053378;28;20622;-68
2022/04/13 04:49:16;;;;;;;1.00;1.00;;;12.60;99.90;;;;;;5056988;28;20231;-69
2022/04/13 04:51:43;;;;;;;1.30;1.20;;;12.60;99.90;;;;;;5056051;28;20260;-68
2022/04/13 04:54:10;;;;;;;1.00;1.00;;;12.60;99.90;;;;;;5057104;28;20228;-70
2022/04/13 04:56:36;;;;;;;1.10;1.10;;;12.60;99.90;;;;;;5054686;28;20208;-68
2022/04/13 04:59:03;;;;;;;1.20;1.10;;;12.60;99.90;;;;;;5053810;28;20231;-68
2022/04/13 05:01:30;;;;;;;1.10;1.02;;;12.60;99.90;;;;;;5053540;28;20204;-70
2022/04/13 05:03:57;;;;;;;1.15;1.10;;;12.60;99.90;;;;;;5053109;28;20735;-69
2022/04/13 05:06:28;;;;;;;1.15;1.15;;;12.50;99.90;;;;;;5053270;28;20292;-69
2022/04/13 05:08:56;;;;;;;1.10;1.10;;;12.50;99.90;;;;;;5053099;28;20196;-68
2022/04/13 05:11:23;;;;;;;1.10;1.10;;;12.50;99.90;;;;;;5053281;28;20200;-71
2022/04/13 05:13:51;;;;;;;0.98;0.98;;;12.50;99.90;;;;;;5053544;28;20219;-69
2022/04/13 05:16:19;;;;;;;1.15;1.05;;;12.50;99.90;;;;;;5052414;28;20227;-68
2022/04/13 05:18:46;;;;;;;0.98;0.95;;;12.50;99.90;;;;;;5054197;28;20267;-70
2022/04/13 05:21:14;;;;;;;1.35;1.20;;;12.50;99.90;;;;;;5053495;28;20682;-66
2022/04/13 05:23:43;;;;;;;1.35;1.25;;;12.50;99.90;;;;;;5053235;28;20709;-71
2022/04/13 05:26:10;;;;;;;1.13;1.10;;;12.50;99.90;;;;;;5052935;28;20231;-68
2022/04/13 05:28:37;;;;;;;0.80;0.80;;;12.60;99.90;;;;;;5054093;28;20247;-70
2022/04/13 05:31:04;;;;;;;1.13;1.10;;;12.60;99.90;;;;;;5053539;28;20204;-69
2022/04/13 05:33:32;;;;;;;2.60;1.60;;;12.60;99.90;;;;;;5053064;28;20223;-70
2022/04/13 05:35:59;;;;;;;1.20;1.20;;;12.60;99.90;;;;;;5052690;28;20223;-69
2022/04/13 05:38:27;;;;;;;1.63;1.20;;;12.60;99.90;;;;;;5052952;28;20235;-71
2022/04/13 05:40:56;;;;;;;1.20;1.20;;;12.60;99.90;;;;;;5052653;28;20208;-70
2022/04/13 05:43:23;;;;;;;1.05;1.05;;;12.60;99.90;;;;;;5052317;28;20717;-68
2022/04/13 05:45:49;;;;;;;1.20;1.20;;;12.70;99.90;;;;;;5052543;28;20728;-69
2022/04/13 05:48:16;;;;;;;1.30;1.20;;;12.70;99.90;;;;;;5053362;28;20295;-71
2022/04/13 05:50:43;;;;;;;1.00;1.00;;;12.80;99.90;;;;;;5053104;28;20239;-69
2022/04/13 05:53:10;;;;;;;1.13;1.03;;;12.80;99.90;;;;;;5053007;28;20606;-69
2022/04/13 05:55:37;;;;;;;1.30;1.20;;;12.80;99.90;;;;;;5064610;28;20247;-69
2022/04/13 05:58:05;;;;;;;1.10;1.10;;;12.90;99.90;;;;;;5069653;28;20248;-71
2022/04/13 06:00:32;;;;;;;3.50;1.30;;;12.90;99.90;;;;;;5068983;28;20211;-67
2022/04/13 06:02:59;;;;;;;1.40;1.30;;;13.00;99.90;;;;;;5055169;28;20316;-68
2022/04/13 06:05:26;;;;;;;1.10;1.00;;;13.10;99.90;;;;;;5052222;28;20251;-69
2022/04/13 06:07:54;;;;;;;1.20;1.10;;;13.10;99.90;;;;;;5052112;28;20200;-69
2022/04/13 06:10:21;;;;;;;1.20;1.10;;;13.20;99.90;;;;;;5052387;28;20220;-68
2022/04/13 06:12:49;;;;;;;1.50;1.10;;;13.20;99.90;;;;;;5052294;28;20228;-70
2022/04/13 06:15:17;;;;;;;1.15;1.10;;;13.40;99.90;;;;;;5051939;28;20247;-68
2022/04/13 06:17:44;;;;;;;0.90;0.90;;;13.50;99.90;;;;;;5052181;28;20211;-70
2022/04/13 06:20:14;;;;;;;1.30;1.20;;;13.60;99.90;;;;;;5052332;28;20199;-68
2022/04/13 06:22:42;;;;;;;1.20;1.20;;;13.60;99.90;;;;;;5052924;28;20207;-69
2022/04/13 06:25:12;;;;;;;0.90;0.90;;;13.70;99.90;;;;;;5052008;28;20290;-68
2022/04/13 06:27:39;;;;;;;1.63;1.17;;;13.80;99.90;;;;;;5051647;28;20311;-70
2022/04/13 06:30:07;;;;;;;1.00;1.00;;;13.90;99.90;;;;;;5052319;28;20199;-69
2022/04/13 06:32:37;;;;;;;1.23;1.15;;;13.90;99.90;;;;;;5052144;28;20562;-69
2022/04/13 06:35:05;;;;;;;0.93;0.93;;;14.00;99.90;;;;;;5052593;28;20314;-69
2022/04/13 06:37:33;;;;;;;1.00;1.00;;;14.10;99.90;;;;;;5062433;28;20251;-68
2022/04/13 06:40:00;;;;;;;1.00;1.00;;;14.10;99.90;;;;;;5068405;28;20220;-69
2022/04/13 06:42:27;;;;;;;1.00;1.00;;;14.20;99.90;;;;;;5066579;28;20206;-68
2022/04/13 06:44:54;;;;;;;1.00;1.00;;;14.30;99.90;;;;;;5064104;28;20204;-68
2022/04/13 06:47:21;;;;;;;1.10;1.10;;;14.30;99.90;;;;;;5059627;28;20208;-69
2022/04/13 06:49:50;;;;;;;1.00;1.00;;;14.40;99.90;;;;;;5053965;28;20243;-67
2022/04/13 06:52:17;;;;;;;0.98;0.98;;;14.50;99.90;;;;;;5057030;28;20234;-69
2022/04/13 06:54:44;;;;;;;1.05;1.00;;;14.60;99.90;;;;;;5061821;28;20244;-68
2022/04/13 06:57:11;;;;;;;1.20;1.15;;;14.70;99.90;;;;;;5062015;28;20871;-68
2022/04/13 06:59:38;;;;;;;1.98;1.20;;;14.90;99.90;;;;;;5054684;28;20263;-68
2022/04/13 07:02:06;;;;;;;1.67;1.20;;;14.90;99.90;;;;;;5054851;28;20199;-67
2022/04/13 07:04:34;;;;;;;1.65;1.30;;;15.00;99.90;;;;;;5052782;28;20340;-69
2022/04/13 07:07:03;;;;;;;1.00;0.90;;;15.20;99.90;;;;;;5052680;28;20554;-69
2022/04/13 07:09:30;;;;;;;1.73;1.35;;;15.30;99.90;;;;;;5051873;28;20216;-68
2022/04/13 07:11:57;;;;;;;1.10;1.10;;;15.40;99.90;;;;;;5052165;28;20300;-68
2022/04/13 07:14:24;;;;;;;1.13;1.02;;;15.50;99.90;;;;;;5050608;28;20865;-67
2022/04/13 07:16:51;;;;;;;1.00;1.00;;;15.60;99.90;;;;;;5049130;28;20216;-69
2022/04/13 07:19:18;;;;;;;1.10;1.10;;;15.80;99.90;;;;;;5050921;28;20227;-69
2022/04/13 07:21:45;;;;;;;1.00;1.00;;;15.90;99.90;;;;;;5047183;28;20282;-67
2022/04/13 07:24:13;;;;;;;0.90;0.90;;;16.10;99.90;;;;;;5056495;28;20349;-68
2022/04/13 07:26:40;;;;;;;1.00;1.00;;;16.20;99.90;;;;;;5050478;28;20224;-68
2022/04/13 07:29:07;;;;;;;1.27;1.20;;;16.30;99.90;;;;;;5050682;28;20298;-67
2022/04/13 07:31:34;;;;;;;1.30;1.05;;;16.40;99.90;;;;;;5054574;28;20576;-68
2022/04/13 07:34:02;;;;;;;1.20;1.10;;;16.50;99.90;;;;;;5049896;28;20228;-67
2022/04/13 07:36:29;;;;;;;0.90;0.90;;;16.70;99.90;;;;;;5054185;28;20208;-68
2022/04/13 07:38:56;;;;;;;0.97;0.97;;;16.80;99.90;;;;;;5055178;28;20231;-67
2022/04/13 07:41:24;;;;;;;1.20;1.10;;;17.00;99.90;;;;;;5047817;28;20204;-69
2022/04/13 07:43:51;;;;;;;0.90;0.90;;;17.20;99.90;;;;;;5054917;28;20880;-70
2022/04/13 07:46:18;;;;;;;0.90;0.90;;;17.30;99.90;;;;;;5054817;28;20223;-67
2022/04/13 07:48:45;;;;;;;2.05;1.30;;;17.40;99.90;;;;;;5055771;28;20283;-67
2022/04/13 07:51:12;;;;;;;0.98;0.98;;;17.60;99.90;;;;;;5051223;28;20204;-68
2022/04/13 07:53:40;;;;;;;1.10;1.10;;;17.80;99.90;;;;;;5056128;28;20258;-66
2022/04/13 07:56:07;;;;;;;1.10;1.10;;;17.90;99.90;;;;;;5053665;28;20220;-67
2022/04/13 07:58:36;;;;;;;0.95;0.90;;;18.00;99.90;;;;;;5055046;28;20211;-67
2022/04/13 08:01:03;;;;;;;1.17;1.17;;;18.20;99.90;;;;;;5053688;28;20231;-67
2022/04/13 08:03:30;;;;;;;1.10;1.10;;;18.40;99.90;;;;;;5054609;28;20302;-67
2022/04/13 08:05:57;;;;;;;1.00;1.00;;;18.50;99.90;;;;;;5051589;28;20602;-68
2022/04/13 08:08:25;;;;;;;2.15;1.10;;;18.50;99.90;;;;;;5054631;28;20200;-67
2022/04/13 08:10:51;;;;;;;1.00;1.00;;;18.70;99.90;;;;;;5054700;28;20227;-67
2022/04/13 08:13:18;;;;;;;1.05;1.05;;;18.70;99.90;;;;;;5055405;28;20219;-68
2022/04/13 08:15:47;;;;;;;1.20;1.10;;;18.80;99.90;;;;;;5053875;28;20227;-68
2022/04/13 08:18:14;;;;;;;1.50;1.10;;;18.90;99.90;;;;;;5054321;28;20208;-67
2022/04/13 08:20:41;;;;;;;1.08;1.00;;;19.00;99.90;;;;;;5054081;28;20208;-69
2022/04/13 08:23:08;;;;;;;1.10;1.00;;;19.20;99.90;;;;;;5054437;28;20644;-66
2022/04/13 08:25:35;;;;;;;0.97;0.97;;;19.40;99.90;;;;;;5051569;28;20292;-69
2022/04/13 08:28:01;;;;;;;0.90;0.90;;;19.50;99.90;;;;;;5051741;28;20200;-67
2022/04/13 08:30:28;;;;;;;1.42;1.20;;;19.50;99.90;;;;;;5049241;28;20208;-67
2022/04/13 08:32:57;;;;;;;0.93;0.93;;;19.50;99.90;;;;;;5054125;22;20255;-66
2022/04/13 08:35:27;;;;;;;1.13;1.08;;;19.50;99.90;;;;;;5037186;28;20585;-63
2022/04/13 08:37:54;;;;;;;1.10;1.10;;;19.60;99.90;;;;;;5035652;28;20200;-66
2022/04/13 08:40:22;;;;;;;1.00;1.00;;;19.70;99.90;;;;;;5031299;28;20295;-65
2022/04/13 08:42:58;;;;;;;1.10;1.00;;;19.90;99.90;;;;;;5026362;28;20235;-65
2022/04/13 08:45:28;;;;;;;1.00;1.00;;;20.00;99.90;;;;;;5024826;28;20241;-61
2022/04/13 08:47:59;;;;;;;1.35;0.90;;;20.10;99.90;;;;;;5025294;28;20241;-66
2022/04/13 08:50:28;;;;;;;1.17;1.17;;;20.10;99.90;;;;;;5022020;28;20201;-65
2022/04/13 08:52:59;;;;;;;1.10;1.00;;;20.20;99.90;;;;;;5008742;28;20308;-65
2022/04/13 08:55:28;;;;;;;1.77;1.10;;;20.30;99.90;;;;;;5017899;28;20209;-64
2022/04/13 08:58:03;;;;;;;1.00;0.95;;;20.30;99.90;;;;;;5035911;28;20505;-67
2022/04/13 09:00:34;;;;;;;1.48;1.00;;;20.40;99.90;;;;;;5034741;28;20207;-63
2022/04/13 09:03:22;;;;;;;1.20;1.10;;;20.40;99.90;;;;;;5033612;28;20233;-65
2022/04/13 09:05:52;;;;;;;1.10;1.05;;;20.50;99.90;;;;;;5027560;28;20247;-64
2022/04/13 09:08:22;;;;;;;2.10;1.08;;;20.50;99.90;;;;;;5029496;28;20279;-64
2022/04/13 09:10:51;;;;;;;0.80;0.80;;;20.50;99.90;;;;;;5020602;28;20197;-64
2022/04/13 09:13:20;;;;;;;1.30;1.20;;;20.70;99.90;;;;;;5021389;28;20354;-65
2022/04/13 09:15:48;;;;;;;1.73;1.08;;;20.70;99.90;;;;;;5024859;28;20687;-66
2022/04/13 09:18:16;;;;;;;1.20;1.10;;;20.90;99.90;;;;;;5026278;28;20211;-64
2022/04/13 09:20:44;;;;;;;1.10;1.00;;;21.00;99.90;;;;;;5017920;28;20248;-66
2022/04/13 09:23:13;;;;;;;1.48;1.05;;;21.00;99.90;;;;;;5025617;28;20311;-63
2022/04/13 09:25:42;;;;;;;1.02;0.90;;;20.80;99.90;;;;;;5026554;28;20252;-64
2022/04/13 09:28:09;;;;;;;0.95;0.95;;;21.00;99.90;;;;;;5017489;28;20228;-64
2022/04/13 09:30:36;;;;;;;1.17;1.08;;;21.10;99.90;;;;;;5025005;28;20206;-65
2022/04/13 09:33:04;;;;;;;1.05;1.00;;;21.20;99.90;;;;;;5035025;28;20327;-65
2022/04/13 09:35:34;;;;;;;1.15;1.10;;;21.20;99.90;;;;;;5031846;28;20200;-64
2022/04/13 09:38:05;;;;;;;1.15;1.10;;;21.30;99.90;;;;;;5027603;28;20208;-65
2022/04/13 09:40:35;;;;;;;2.15;1.20;;;21.30;99.90;;;;;;5022587;28;20296;-64
2022/04/13 09:43:10;;;;;;;1.20;1.15;;;21.50;99.90;;;;;;5024507;28;20232;-64
2022/04/13 09:45:39;;;;;;;1.40;1.23;;;21.60;99.90;;;;;;5018331;28;20292;-65
2022/04/13 09:48:07;;;;;;;1.30;1.20;;;21.70;99.90;;;;;;5014270;28;20205;-66
2022/04/13 09:50:37;;;;;;;3.38;1.42;;;21.60;99.90;;;;;;5015933;28;20240;-66
2022/04/13 09:53:05;;;;;;;1.30;1.20;;;21.70;99.90;;;;;;5017814;28;20977;-65
2022/04/13 09:55:35;;;;;;;1.00;1.00;;;21.80;99.90;;;;;;5015981;28;20213;-65
2022/04/13 09:58:06;;;;;;;1.20;1.20;;;21.80;99.90;;;;;;5018416;28;20584;-66
2022/04/13 10:00:34;;;;;;;1.17;1.08;;;21.80;99.90;;;;;;5018776;28;20208;-65
2022/04/13 10:03:12;;;;;;;0.98;0.90;;;21.90;99.90;;;;;;5016646;28;20276;-66
2022/04/13 10:05:43;;;;;;;1.00;1.00;;;22.10;99.90;;;;;;5016709;28;20189;-65
2022/04/13 10:08:12;;;;;;;1.70;1.10;;;22.20;99.90;;;;;;5022840;28;20219;-65
2022/04/13 10:10:45;;;;;;;0.95;0.95;;;22.10;99.90;;;;;;5015734;28;20277;-66
2022/04/13 10:13:14;;;;;;;1.00;1.00;;;22.30;99.90;;;;;;5016148;28;20221;-66
2022/04/13 10:15:56;;;;;;;0.90;0.90;;;22.40;99.90;;;;;;5014148;28;20213;-65
2022/04/13 10:18:23;;;;;;;1.58;1.25;;;22.50;99.90;;;;;;5014001;28;20205;-66
2022/04/13 10:20:51;;;;;;;1.08;1.08;;;22.60;99.90;;;;;;5012977;28;20205;-65
2022/04/13 10:23:18;;;;;;;1.13;1.13;;;22.30;99.90;;;;;;5017504;28;20209;-65
2022/04/13 10:25:45;;;;;;;3.70;1.30;;;22.20;99.90;;;;;;5026404;28;20308;-65
2022/04/13 10:28:13;;;;;;;1.08;1.05;;;22.30;99.90;;;;;;5019075;28;20244;-65
2022/04/13 10:30:41;;;;;;;1.40;1.30;;;22.50;99.90;;;;;;5014364;28;20209;-64
2022/04/13 10:33:10;;;;;;;1.40;1.10;;;22.60;99.90;;;;;;5014157;28;20347;-65
2022/04/13 10:35:38;;;;;;;1.27;1.20;;;22.50;99.90;;;;;;5011492;28;20671;-65
2022/04/13 10:38:06;;;;;;;1.17;1.02;;;22.50;99.90;;;;;;5022845;28;20303;-65
2022/04/13 10:40:37;;;;;;;0.95;0.95;;;22.60;99.90;;;;;;5012030;28;20599;-66
2022/04/13 10:43:05;;;;;;;1.17;1.08;;;22.80;99.90;;;;;;5018164;28;20276;-65
2022/04/13 10:45:34;;;;;;;1.23;1.13;;;22.70;99.90;;;;;;5010339;28;20719;-67
2022/04/13 10:48:04;;;;;;;1.30;1.20;;;22.70;99.90;;;;;;5012030;28;20212;-64
2022/04/13 10:50:42;;;;;;;1.70;1.55;;;22.90;99.90;;;;;;5012497;28;20561;-64
2022/04/13 10:53:26;;;;;;;1.98;1.10;;;22.90;99.90;;;;;;5012874;28;20332;-65
2022/04/13 10:55:59;;;;;;;1.15;1.13;;;23.00;99.90;;;;;;5009821;28;20217;-64
2022/04/13 10:58:44;;;;;;;3.75;1.40;;;22.90;99.90;;;;;;5012402;28;20303;-66
2022/04/13 11:01:13;;;;;;;1.27;1.20;;;22.70;99.90;;;;;;5019049;28;20283;-64
2022/04/13 11:03:40;;;;;;;1.30;1.20;;;22.70;99.90;;;;;;5015738;28;20299;-65
2022/04/13 11:06:09;;;;;;;1.30;1.23;;;22.80;99.90;;;;;;5023634;28;20228;-67
2022/04/13 11:08:46;;;;;;;2.17;1.10;;;22.80;99.90;;;;;;5016840;28;20667;-66
2022/04/13 11:11:18;;;;;;;1.38;1.25;;;23.00;99.90;;;;;;5013654;28;20817;-66
2022/04/13 11:13:47;;;;;;;0.90;0.90;;;23.10;99.90;;;;;;5015562;28;20288;-66
2022/04/13 11:16:17;;;;;;;1.42;1.33;;;23.20;99.90;;;;;;5014384;28;20691;-67
2022/04/13 11:19:08;;;;;;;1.52;1.20;;;23.40;99.90;;;;;;5014786;28;20220;-64
2022/04/13 11:21:56;;;;;;;1.42;1.33;;;23.50;99.90;;;;;;5018697;28;20229;-67
2022/04/13 11:24:34;;;;;;;1.10;1.10;;;23.50;99.90;;;;;;5018192;28;20233;-66
2022/04/13 11:27:01;;;;;;;2.15;1.27;;;23.60;99.90;;;;;;5022825;28;20210;-64
2022/04/13 11:29:34;;;;;;;1.20;1.10;;;23.50;99.90;;;;;;5018029;28;20264;-65
2022/04/13 11:32:14;;;;;;;1.35;1.25;;;23.50;99.90;;;;;;5016507;28;20233;-64
2022/04/13 11:34:44;;;;;;;1.23;1.23;;;23.60;99.90;;;;;;5016320;28;20288;-66
2022/04/13 11:37:13;;;;;;;1.10;1.10;;;23.60;99.90;;;;;;5016206;28;20225;-64
2022/04/13 11:39:49;;;;;;;1.38;1.23;;;23.40;99.90;;;;;;5014114;28;20240;-66
2022/04/13 11:42:18;;;;;;;1.10;1.10;;;23.50;99.90;;;;;;5015228;28;20248;-66
2022/04/13 11:44:49;;;;;;;1.10;1.10;;;23.50;99.90;;;;;;5013874;28;20296;-67
2022/04/13 11:47:16;;;;;;;1.33;1.20;;;23.50;99.90;;;;;;5013524;28;20232;-66
2022/04/13 11:49:56;;;;;;;1.08;1.00;;;23.40;99.90;;;;;;5021463;28;20291;-65
2022/04/13 11:52:42;;;;;;;1.33;1.23;;;23.40;99.90;;;;;;5015995;28;20317;-66
2022/04/13 11:55:18;;;;;;;1.52;0.93;;;23.60;99.90;;;;;;5021423;28;20208;-65
2022/04/13 11:58:25;;;;;;;1.20;1.10;;;23.70;99.90;;;;;;5021771;28;20236;-68
2022/04/13 12:01:00;;;;;;;3.28;1.30;;;23.80;99.90;;;;;;5025633;28;20217;-66
2022/04/13 12:03:30;;;;;;;4.20;1.30;;;23.90;99.90;;;;;;5025131;28;20639;-67
2022/04/13 12:05:59;;;;;;;1.13;1.13;;;24.00;99.90;;;;;;5019653;28;20206;-66
2022/04/13 12:08:28;;;;;;;1.17;1.10;;;24.10;99.90;;;;;;5022905;28;20278;-65
2022/04/13 12:11:01;;;;;;;1.20;1.10;;;24.10;99.90;;;;;;5013787;28;20746;-64
2022/04/13 12:13:32;;;;;;;1.20;1.20;;;23.90;99.90;;;;;;5018211;28;20668;-67
2022/04/13 12:16:01;;;;;;;1.17;1.17;;;24.00;99.90;;;;;;5014406;28;20740;-66
2022/04/13 12:18:29;;;;;;;5.15;1.45;;;24.10;99.90;;;;;;5017812;28;20228;-66
2022/04/13 12:21:10;;;;;;;1.70;1.30;;;24.00;99.90;;;;;;5020369;28;20232;-67
2022/04/13 12:23:38;;;;;;;1.30;1.20;;;23.90;99.90;;;;;;5014435;28;20292;-66
2022/04/13 12:26:08;;;;;;;1.42;1.30;;;24.00;99.90;;;;;;5008179;28;20205;-67
2022/04/13 12:28:36;;;;;;;1.58;1.40;;;24.00;99.90;;;;;;5015177;28;20212;-66
2022/04/13 12:31:06;;;;;;;1.20;1.10;;;24.20;99.90;;;;;;5015349;28;20209;-67
2022/04/13 12:33:34;;;;;;;2.78;1.30;;;24.30;99.90;;;;;;5014996;28;20254;-65
2022/04/13 12:36:02;;;;;;;1.40;1.30;;;24.50;99.90;;;;;;5030136;28;20200;-65
2022/04/13 12:38:31;;;;;;;1.30;1.17;;;24.50;99.90;;;;;;5031620;28;20271;-66
2022/04/13 12:41:11;;;;;;;1.45;1.35;;;24.40;99.90;;;;;;5032502;28;20201;-68
2022/04/13 12:43:39;;;;;;;1.40;1.30;;;24.50;99.90;;;;;;5026006;28;20541;-66
2022/04/13 12:46:12;;;;;;;1.27;1.17;;;24.60;99.90;;;;;;5021235;28;20244;-66
2022/04/13 12:48:39;;;;;;;1.50;1.40;;;24.40;99.90;;;;;;5019874;28;20209;-65
2022/04/13 12:51:07;;;;;;;2.08;1.15;;;24.30;99.90;;;;;;5017554;28;20364;-67
2022/04/13 12:53:49;;;;;;;1.50;1.40;;;24.30;99.90;;;;;;5021508;28;20209;-67
2022/04/13 12:56:19;;;;;;;1.48;1.30;;;24.30;99.90;;;;;;5015440;28;20279;-67